Time;durP1;ratioP1;P1;durP2;ratioP2;P2;SDS_P1;SDS_P2;PMS_P1;PMS_P2;Temp;Humidity;BMP_temperature;BMP_pressure;BME280_temperature;BME280_humidity;BME280_pressure;Samples;Min_cycle;Max_cycle;Signal;HPM_P1;HPM_P2
2022/10/01 00:00:55;;;;;;;60.70;22.10;;;;;;;5.89;100.00;95974.03;5024858;28;20569;-76
2022/10/01 00:03:24;;;;;;;53.43;20.17;;;;;;;5.90;100.00;95971.31;5037249;28;20068;-76
2022/10/01 00:06:09;;;;;;;52.27;22.07;;;;;;;5.92;100.00;95973.78;5013118;28;20064;-76
2022/10/01 00:08:37;;;;;;;34.53;14.87;;;;;;;5.88;100.00;95981.06;5028356;28;20130;-76
2022/10/01 00:11:07;;;;;;;12.83;7.90;;;;;;;5.96;100.00;95976.97;5021965;28;20423;-76
2022/10/01 00:13:34;;;;;;;13.20;8.03;;;;;;;5.99;100.00;95976.69;5011199;28;20089;-76
2022/10/01 00:16:07;;;;;;;17.00;8.27;;;;;;;6.03;100.00;95976.28;5013615;28;20796;-76
2022/10/01 00:18:41;;;;;;;10.57;6.95;;;;;;;6.14;100.00;95972.72;5008425;28;20093;-77
2022/10/01 00:21:11;;;;;;;11.83;6.93;;;;;;;6.20;100.00;95979.97;5006329;28;20049;-75
2022/10/01 00:23:38;;;;;;;10.53;6.43;;;;;;;6.24;100.00;95980.56;5004968;28;20029;-76
2022/10/01 00:26:13;;;;;;;10.67;6.43;;;;;;;6.31;100.00;95981.63;5008214;28;20034;-76
2022/10/01 00:28:40;;;;;;;10.00;6.20;;;;;;;6.35;100.00;95980.38;5018832;28;20049;-76
2022/10/01 00:31:07;;;;;;;10.17;6.13;;;;;;;6.41;100.00;95981.63;4989551;28;20072;-77
2022/10/01 00:33:34;;;;;;;11.63;7.30;;;;;;;6.48;100.00;95977.50;5007158;28;20037;-75
2022/10/01 00:36:00;;;;;;;10.67;7.03;;;;;;;6.51;100.00;95972.00;5021936;28;20065;-75
2022/10/01 00:38:26;;;;;;;12.67;6.27;;;;;;;6.55;100.00;95968.13;4987887;28;20049;-75
2022/10/01 00:40:55;;;;;;;11.33;7.23;;;;;;;6.53;100.00;95963.03;4992818;28;20141;-75
2022/10/01 00:43:27;;;;;;;11.93;7.17;;;;;;;6.51;100.00;95975.41;4993053;28;20040;-75
2022/10/01 00:45:56;;;;;;;10.23;6.60;;;;;;;6.55;100.00;95971.56;5018546;28;20053;-75
2022/10/01 00:48:24;;;;;;;11.60;7.97;;;;;;;6.58;100.00;95970.47;5008376;28;20426;-75
2022/10/01 00:50:55;;;;;;;12.83;7.93;;;;;;;6.59;100.00;95972.09;5005657;28;20030;-73
2022/10/01 00:53:23;;;;;;;13.60;7.90;;;;;;;6.58;100.00;95970.47;5030950;28;20495;-75
2022/10/01 00:55:58;;;;;;;12.53;7.90;;;;;;;6.56;100.00;95965.34;5043645;28;20022;-75
2022/10/01 00:58:25;;;;;;;11.70;7.50;;;;;;;6.59;100.00;95964.25;5001984;28;20092;-75
2022/10/01 01:00:55;;;;;;;16.07;8.37;;;;;;;6.57;100.00;95958.34;5004215;28;20025;-75
2022/10/01 01:03:24;;;;;;;14.37;8.53;;;;;;;6.53;100.00;95951.75;5023597;28;20061;-75
2022/10/01 01:05:50;;;;;;;13.90;7.87;;;;;;;6.50;100.00;95952.03;5020731;28;20038;-75
2022/10/01 01:08:17;;;;;;;11.40;7.87;;;;;;;6.48;100.00;95956.59;5003475;28;20045;-76
2022/10/01 01:11:05;;;;;;;11.97;7.80;;;;;;;6.44;100.00;95952.59;4998030;28;20067;-75
2022/10/01 01:13:44;;;;;;;12.97;7.97;;;;;;;6.43;100.00;95954.38;5009586;28;20022;-75
2022/10/01 01:16:33;;;;;;;11.77;7.80;;;;;;;6.42;100.00;95957.16;5011353;28;20030;-75
2022/10/01 01:19:27;;;;;;;13.70;7.57;;;;;;;6.43;100.00;95957.00;5011585;28;20057;-77
2022/10/01 01:21:59;;;;;;;12.27;8.23;;;;;;;6.43;100.00;95945.72;5009671;28;20022;-75
2022/10/01 01:24:47;;;;;;;30.63;13.27;;;;;;;6.46;100.00;95940.22;5028905;28;20506;-75
2022/10/01 01:27:27;;;;;;;24.00;12.30;;;;;;;6.43;100.00;95936.09;4989968;28;20034;-75
2022/10/01 01:30:07;;;;;;;24.97;12.07;;;;;;;6.38;100.00;95933.91;5044068;28;20041;-75
2022/10/01 01:32:45;;;;;;;16.87;10.33;;;;;;;6.30;100.00;95936.38;5009714;28;20036;-76
2022/10/01 01:35:19;;;;;;;17.27;10.47;;;;;;;6.30;100.00;95930.34;5006574;28;20050;-75
2022/10/01 01:37:52;;;;;;;14.97;9.67;;;;;;;6.26;100.00;95926.38;5046552;28;20039;-76
2022/10/01 01:40:20;;;;;;;11.40;6.88;;;;;;;6.21;100.00;95929.41;4998330;28;20038;-75
2022/10/01 01:42:49;;;;;;;16.40;9.43;;;;;;;6.22;100.00;95930.25;5023623;28;20034;-75
2022/10/01 01:45:21;;;;;;;14.30;9.17;;;;;;;6.22;100.00;95925.00;5014483;28;20037;-74
2022/10/01 01:47:49;;;;;;;13.75;8.50;;;;;;;6.20;100.00;95934.75;5023615;28;20041;-75
2022/10/01 01:50:16;;;;;;;16.53;9.53;;;;;;;6.16;100.00;95929.00;5021021;28;20053;-75
2022/10/01 01:52:42;;;;;;;14.63;9.90;;;;;;;6.16;100.00;95936.00;4993644;28;20029;-75
2022/10/01 01:55:08;;;;;;;13.70;9.07;;;;;;;6.13;100.00;95932.72;5001845;28;20048;-75
2022/10/01 01:57:44;;;;;;;13.03;9.37;;;;;;;6.08;100.00;95926.28;4995162;28;20034;-75
2022/10/01 02:00:11;;;;;;;15.73;10.03;;;;;;;6.01;100.00;95906.91;5022659;28;20036;-75
2022/10/01 02:02:40;;;;;;;13.73;9.60;;;;;;;5.95;100.00;95920.50;5026900;28;20045;-75
2022/10/01 02:05:09;;;;;;;14.40;9.40;;;;;;;5.96;100.00;95914.31;4997096;28;20041;-75
2022/10/01 02:08:03;;;;;;;15.07;9.60;;;;;;;5.88;100.00;95915.81;5010631;28;20034;-75
2022/10/01 02:10:35;;;;;;;17.47;9.67;;;;;;;5.87;100.00;95922.00;5030544;28;20044;-75
2022/10/01 02:13:04;;;;;;;14.10;8.60;;;;;;;5.88;100.00;95922.81;5011289;28;20638;-75
2022/10/01 02:15:44;;;;;;;11.80;8.00;;;;;;;5.86;100.00;95920.31;5027432;28;20053;-74
2022/10/01 02:18:28;;;;;;;12.93;8.27;;;;;;;5.83;100.00;95917.16;5011171;28;21606;-74
2022/10/01 02:21:08;;;;;;;12.93;7.17;;;;;;;5.80;100.00;95913.06;5028738;28;20084;-75
2022/10/01 02:23:41;;;;;;;11.80;7.40;;;;;;;5.86;100.00;95922.13;5013789;28;20038;-75
2022/10/01 02:26:14;;;;;;;14.50;7.13;;;;;;;5.94;100.00;95914.47;5021620;28;20038;-75
2022/10/01 02:28:43;;;;;;;12.27;6.78;;;;;;;5.89;100.00;95924.47;5015188;28;20037;-74
2022/10/01 02:31:12;;;;;;;10.67;6.80;;;;;;;5.96;100.00;95916.94;5012274;28;20038;-75
2022/10/01 02:33:40;;;;;;;12.33;7.23;;;;;;;6.00;100.00;95916.53;5033261;28;20067;-75
2022/10/01 02:36:09;;;;;;;12.53;7.60;;;;;;;5.99;100.00;95917.47;5026132;28;20057;-75
2022/10/01 02:38:37;;;;;;;17.70;7.10;;;;;;;6.06;100.00;95908.13;5034779;28;20045;-75
2022/10/01 02:41:06;;;;;;;10.80;6.87;;;;;;;6.09;100.00;95910.47;5006325;28;20044;-75
2022/10/01 02:43:50;;;;;;;10.67;7.17;;;;;;;6.12;100.00;95906.75;5014826;28;20125;-75
2022/10/01 02:46:21;;;;;;;12.35;7.53;;;;;;;6.13;100.00;95900.56;5015731;28;20123;-75
2022/10/01 02:48:47;;;;;;;11.20;7.77;;;;;;;6.14;100.00;95900.44;5030156;28;20124;-75
2022/10/01 02:51:36;;;;;;;11.43;7.47;;;;;;;6.17;100.00;95894.13;4995924;28;20053;-73
2022/10/01 02:54:12;;;;;;;10.77;7.00;;;;;;;6.16;100.00;95897.66;5029071;28;20380;-74
2022/10/01 02:59:24;;;;;;;8.67;6.13;;;;;;;6.13;100.00;95882.28;5015494;28;20494;-74
2022/10/01 03:01:49;;;;;;;9.50;6.23;;;;;;;6.09;100.00;95888.75;5014684;28;20030;-74
2022/10/01 03:04:17;;;;;;;11.70;6.97;;;;;;;6.08;100.00;95884.50;5019122;28;20029;-75
2022/10/01 03:06:42;;;;;;;12.97;8.07;;;;;;;6.11;100.00;95876.41;4994121;28;20499;-75
2022/10/01 03:09:08;;;;;;;13.37;7.20;;;;;;;6.14;100.00;95876.94;4997146;28;20077;-75
2022/10/01 03:11:34;;;;;;;8.33;5.47;;;;;;;6.24;100.00;95883.94;5011206;28;20409;-75
2022/10/01 03:14:00;;;;;;;10.40;6.40;;;;;;;6.26;100.00;95884.59;5014001;28;20042;-75
2022/10/01 03:16:26;;;;;;;12.30;7.00;;;;;;;6.30;100.00;95888.56;5010240;28;20030;-75
2022/10/01 03:18:52;;;;;;;10.67;6.33;;;;;;;6.37;100.00;95885.28;5012150;28;20049;-75
2022/10/01 03:21:17;;;;;;;11.57;6.23;;;;;;;6.45;100.00;95892.38;4995808;28;20105;-75
2022/10/01 03:23:43;;;;;;;8.73;6.07;;;;;;;6.45;100.00;95889.78;4991988;28;20252;-74
2022/10/01 03:26:09;;;;;;;8.73;6.17;;;;;;;6.47;100.00;95889.63;4991714;28;20445;-75
2022/10/01 03:28:35;;;;;;;8.53;5.60;;;;;;;6.46;100.00;95890.59;5000151;28;20033;-75
2022/10/01 03:31:06;;;;;;;10.50;6.03;;;;;;;6.51;100.00;95881.38;5005150;28;20030;-75
2022/10/01 03:33:32;;;;;;;8.20;5.93;;;;;;;6.53;100.00;95881.22;5026267;28;20049;-75
2022/10/01 03:35:58;;;;;;;12.07;6.87;;;;;;;6.52;100.00;95883.00;5029510;28;20486;-75
2022/10/01 03:38:23;;;;;;;8.53;5.53;;;;;;;6.44;100.00;95880.31;5014307;28;20577;-75
2022/10/01 03:40:49;;;;;;;9.47;5.60;;;;;;;6.48;100.00;95875.63;5024115;28;20034;-75
2022/10/01 03:43:15;;;;;;;8.90;5.40;;;;;;;6.47;100.00;95876.56;5013176;28;20040;-75
2022/10/01 03:45:40;;;;;;;9.13;5.43;;;;;;;6.45;100.00;95873.28;5001002;28;20034;-75
2022/10/01 03:48:06;;;;;;;9.57;4.97;;;;;;;6.47;100.00;95863.50;5040652;28;20476;-75
2022/10/01 03:50:31;;;;;;;9.47;4.70;;;;;;;6.53;100.00;95862.94;5003554;28;20463;-75
2022/10/01 03:52:58;;;;;;;7.77;4.67;;;;;;;6.57;100.00;95849.47;5025854;28;20033;-76
2022/10/01 03:55:24;;;;;;;7.87;3.90;;;;;;;6.65;100.00;95846.13;5004028;28;20088;-75
2022/10/01 03:57:50;;;;;;;7.07;3.90;;;;;;;6.83;100.00;95848.78;5022408;28;20116;-75
2022/10/01 04:00:17;;;;;;;5.83;3.63;;;;;;;6.82;100.00;95842.72;5047509;28;20065;-75
2022/10/01 04:02:43;;;;;;;8.47;3.87;;;;;;;6.78;100.00;95854.44;5028418;28;20492;-74
2022/10/01 04:05:09;;;;;;;5.17;3.13;;;;;;;6.81;100.00;95855.94;5022175;28;20022;-75
2022/10/01 04:07:35;;;;;;;5.27;2.70;;;;;;;7.02;100.00;95842.63;5026272;28;20030;-75
2022/10/01 04:10:00;;;;;;;4.43;2.47;;;;;;;7.08;100.00;95829.78;5024950;28;20056;-75
2022/10/01 04:12:26;;;;;;;5.93;3.03;;;;;;;6.98;100.00;95828.22;5023059;28;20544;-75
2022/10/01 04:14:52;;;;;;;5.83;2.90;;;;;;;7.04;100.00;95830.22;4996578;28;20034;-74
2022/10/01 04:17:18;;;;;;;5.63;2.60;;;;;;;7.14;100.00;95824.91;4996281;28;20499;-75
2022/10/01 04:19:43;;;;;;;5.50;2.63;;;;;;;7.18;100.00;95819.25;5011922;28;20037;-75
2022/10/01 04:22:09;;;;;;;4.80;1.70;;;;;;;7.31;100.00;95821.53;5022582;28;20120;-75
2022/10/01 04:24:34;;;;;;;5.77;1.93;;;;;;;7.36;100.00;95813.22;5049547;28;20033;-74
2022/10/01 04:27:00;;;;;;;3.50;2.20;;;;;;;7.44;100.00;95810.66;5020093;28;20037;-75
2022/10/01 04:29:26;;;;;;;3.97;1.40;;;;;;;7.49;100.00;95808.44;5009833;28;20056;-75
2022/10/01 04:31:52;;;;;;;2.47;1.53;;;;;;;7.55;100.00;95806.03;5021448;28;20032;-75
2022/10/01 04:34:17;;;;;;;2.97;1.67;;;;;;;7.70;100.00;95803.69;5030018;28;20399;-75
2022/10/01 04:36:43;;;;;;;3.70;1.30;;;;;;;7.72;100.00;95804.38;5028643;28;20045;-75
2022/10/01 04:39:09;;;;;;;2.87;1.23;;;;;;;7.83;100.00;95805.09;5031490;28;20033;-75
2022/10/01 04:41:34;;;;;;;2.53;1.33;;;;;;;7.91;100.00;95805.97;5012633;28;20034;-75
2022/10/01 04:44:00;;;;;;;2.73;1.20;;;;;;;7.88;100.00;95808.06;5030401;28;20038;-75
2022/10/01 04:46:27;;;;;;;2.63;1.27;;;;;;;7.92;100.00;95796.34;5017379;28;20041;-75
2022/10/01 04:48:53;;;;;;;1.53;1.00;;;;;;;7.97;100.00;95786.19;5023906;28;20041;-75
2022/10/01 04:51:19;;;;;;;1.80;1.00;;;;;;;7.94;100.00;95787.31;5015040;28;20025;-75
2022/10/01 04:53:44;;;;;;;3.90;1.43;;;;;;;7.96;100.00;95787.19;5047470;28;20026;-75
2022/10/01 04:56:10;;;;;;;1.60;1.00;;;;;;;7.98;100.00;95785.22;5013157;28;20030;-76
2022/10/01 04:58:36;;;;;;;2.13;1.07;;;;;;;7.92;100.00;95793.72;5016157;28;20026;-76
2022/10/01 05:01:02;;;;;;;1.73;1.07;;;;;;;7.94;100.00;95796.97;5013427;28;20033;-75
2022/10/01 05:03:28;;;;;;;4.23;1.87;;;;;;;7.94;100.00;95797.78;5042532;28;20041;-75
2022/10/01 05:05:53;;;;;;;3.00;1.40;;;;;;;7.86;100.00;95789.09;5041635;28;20025;-75
2022/10/01 05:08:19;;;;;;;3.83;1.90;;;;;;;7.80;100.00;95801.78;5022276;28;20026;-76
2022/10/01 05:10:45;;;;;;;2.37;1.47;;;;;;;7.80;100.00;95799.19;5027984;28;20121;-76
2022/10/01 05:13:11;;;;;;;2.67;1.40;;;;;;;7.74;100.00;95791.94;5016268;28;20089;-75
2022/10/01 05:15:37;;;;;;;2.67;1.27;;;;;;;7.68;100.00;95792.56;5029738;28;20034;-75
2022/10/01 05:18:03;;;;;;;3.10;1.43;;;;;;;7.65;100.00;95802.53;5024268;28;20426;-74
2022/10/01 05:20:28;;;;;;;2.00;1.20;;;;;;;7.63;100.00;95794.81;5029433;28;20038;-75
2022/10/01 05:22:55;;;;;;;2.37;1.40;;;;;;;7.63;100.00;95797.41;5039347;28;20091;-75
2022/10/01 05:25:21;;;;;;;4.37;1.60;;;;;;;7.55;100.00;95802.59;5002978;28;20035;-76
2022/10/01 05:27:47;;;;;;;5.70;1.70;;;;;;;7.53;100.00;95805.34;5024104;28;20037;-76
2022/10/01 05:30:22;;;;;;;5.43;1.93;;;;;;;7.60;100.00;95808.19;5008885;28;20026;-75
2022/10/01 05:32:58;;;;;;;4.07;1.30;;;;;;;7.66;100.00;95799.72;5034442;28;20022;-75
2022/10/01 05:35:24;;;;;;;2.47;1.47;;;;;;;7.65;100.00;95805.13;5030236;28;20046;-75
2022/10/01 05:37:57;;;;;;;2.07;1.40;;;;;;;7.61;100.00;95795.91;5034375;28;20029;-75
2022/10/01 05:40:27;;;;;;;5.45;1.88;;;;;;;7.54;100.00;95804.41;5046527;28;20037;-75
2022/10/01 05:42:55;;;;;;;2.80;1.20;;;;;;;7.62;100.00;95798.41;5006905;28;20075;-75
2022/10/01 05:45:22;;;;;;;3.53;1.20;;;;;;;7.64;100.00;95800.84;5025784;28;20087;-75
2022/10/01 05:47:54;;;;;;;2.77;1.40;;;;;;;7.77;100.00;95799.47;5041046;28;20038;-75
2022/10/01 05:50:20;;;;;;;2.13;1.20;;;;;;;7.85;100.00;95803.97;5022371;28;20034;-75
2022/10/01 05:52:51;;;;;;;3.93;1.20;;;;;;;7.93;100.00;95800.59;5006256;28;20053;-75
2022/10/01 05:55:17;;;;;;;2.57;1.10;;;;;;;7.98;100.00;95793.06;5026819;28;20105;-75
2022/10/01 05:57:43;;;;;;;3.33;1.43;;;;;;;7.99;100.00;95797.34;5017762;28;20037;-75
2022/10/01 06:00:11;;;;;;;3.57;1.83;;;;;;;7.98;100.00;95785.22;5037844;28;20045;-75
2022/10/01 06:02:37;;;;;;;3.87;2.00;;;;;;;8.00;100.00;95776.25;5017220;28;20042;-76
2022/10/01 06:05:03;;;;;;;3.67;1.80;;;;;;;7.98;100.00;95790.47;5031730;28;20033;-75
2022/10/01 06:07:32;;;;;;;2.93;1.60;;;;;;;7.92;100.00;95768.34;5028154;28;20041;-75
2022/10/01 06:09:57;;;;;;;2.53;1.30;;;;;;;7.88;100.00;95771.41;5033059;28;20442;-74
2022/10/01 06:12:24;;;;;;;4.43;1.50;;;;;;;7.93;100.00;95767.38;5001269;28;20042;-75
2022/10/01 06:14:49;;;;;;;3.97;1.57;;;;;;;7.99;100.00;95773.78;5044229;28;20045;-75
2022/10/01 06:17:15;;;;;;;2.80;1.50;;;;;;;8.00;100.00;95764.94;5024401;28;20053;-75
2022/10/01 06:19:40;;;;;;;2.63;1.70;;;;;;;8.03;100.00;95760.22;5018360;28;20034;-75
2022/10/01 06:22:06;;;;;;;4.50;1.43;;;;;;;8.06;100.00;95763.53;5024518;28;20119;-75
2022/10/01 06:24:32;;;;;;;3.13;1.60;;;;;;;8.02;100.00;95757.78;5031370;28;20037;-75
2022/10/01 06:26:57;;;;;;;5.07;2.70;;;;;;;7.96;100.00;95751.34;5022681;28;20040;-74
2022/10/01 06:29:23;;;;;;;5.60;3.40;;;;;;;7.97;100.00;95749.53;5028640;28;20038;-75
2022/10/01 06:31:50;;;;;;;5.47;3.07;;;;;;;7.89;100.00;95747.72;5015675;28;20044;-75
2022/10/01 06:34:16;;;;;;;6.63;2.80;;;;;;;7.83;100.00;95743.09;5028858;28;20060;-75
2022/10/01 06:36:41;;;;;;;3.57;2.27;;;;;;;7.77;100.00;95734.03;5030987;28;20356;-75
2022/10/01 06:39:07;;;;;;;4.60;2.13;;;;;;;7.82;100.00;95751.94;5024196;28;20026;-75
2022/10/01 06:41:33;;;;;;;5.43;2.97;;;;;;;7.81;100.00;95745.03;5024340;28;20045;-75
2022/10/01 06:43:59;;;;;;;6.70;3.07;;;;;;;7.86;100.00;95749.81;5030946;28;20036;-75
2022/10/01 06:46:24;;;;;;;6.83;2.27;;;;;;;7.96;100.00;95742.69;5016040;28;20038;-75
2022/10/01 06:48:50;;;;;;;4.03;2.30;;;;;;;8.00;100.00;95744.00;5017528;28;20045;-75
2022/10/01 06:52:47;;;;;;;3.50;1.70;;;;;;;8.04;100.00;95746.16;5019729;28;20038;-75
2022/10/01 06:54:01;;;;;;;6.20;2.17;;;;;;;8.08;100.00;95744.06;5028723;28;20825;-75
2022/10/01 06:56:27;;;;;;;3.47;1.80;;;;;;;8.12;100.00;95742.78;5015098;28;20125;-75
2022/10/01 06:58:53;;;;;;;5.60;1.97;;;;;;;8.23;100.00;95739.06;4999604;28;20030;-77
2022/10/01 07:01:20;;;;;;;4.13;1.80;;;;;;;8.24;100.00;95741.50;5011596;28;20042;-74
2022/10/01 07:03:46;;;;;;;4.13;1.93;;;;;;;8.30;100.00;95745.31;5019214;28;20040;-75
2022/10/01 07:06:11;;;;;;;3.70;1.60;;;;;;;8.24;100.00;95740.69;5037244;28;20021;-74
2022/10/01 07:08:37;;;;;;;4.77;2.10;;;;;;;8.30;100.00;95739.25;5018824;28;20049;-74
2022/10/01 07:11:03;;;;;;;4.73;1.90;;;;;;;8.29;100.00;95743.66;5011363;28;20036;-74
2022/10/01 07:13:29;;;;;;;5.60;3.30;;;;;;;8.29;100.00;95738.44;5010915;28;20046;-74
2022/10/01 07:15:55;;;;;;;3.57;2.23;;;;;;;8.35;100.00;95736.97;5011412;28;20071;-74
2022/10/01 07:18:21;;;;;;;4.90;2.00;;;;;;;8.34;100.00;95730.09;5016922;28;20558;-74
2022/10/01 07:20:47;;;;;;;6.37;2.63;;;;;;;8.35;100.00;95729.09;5037735;28;20053;-74
2022/10/01 07:23:14;;;;;;;5.67;2.20;;;;;;;8.39;100.00;95720.00;5010989;28;20049;-74
2022/10/01 07:25:41;;;;;;;4.50;2.47;;;;;;;8.34;100.00;95725.66;5011817;28;20030;-74
2022/10/01 07:28:14;;;;;;;5.80;2.93;;;;;;;8.35;100.00;95729.09;4993128;28;20088;-74
2022/10/01 07:30:42;;;;;;;5.63;2.63;;;;;;;8.34;100.00;95746.63;4991383;28;20041;-75
2022/10/01 07:33:08;;;;;;;5.60;2.37;;;;;;;8.30;100.00;95744.47;5026112;28;20403;-75
2022/10/01 07:35:36;;;;;;;6.80;2.80;;;;;;;8.31;100.00;95741.69;5012882;28;20029;-75
2022/10/01 07:38:06;;;;;;;4.47;2.40;;;;;;;8.33;100.00;95746.78;5029084;28;20022;-74
2022/10/01 07:40:32;;;;;;;5.87;2.90;;;;;;;8.35;100.00;95755.28;5014438;28;20638;-74
2022/10/01 07:42:58;;;;;;;5.33;2.60;;;;;;;8.38;100.00;95765.50;5012478;28;20033;-75
2022/10/01 07:45:24;;;;;;;5.93;3.20;;;;;;;8.34;100.00;95757.09;5014660;28;20041;-75
2022/10/01 07:47:58;;;;;;;5.33;2.90;;;;;;;8.38;100.00;95757.63;5012682;28;20486;-75
2022/10/01 07:50:25;;;;;;;5.33;2.90;;;;;;;8.41;100.00;95752.09;5021188;28;20042;-75
2022/10/01 07:52:55;;;;;;;5.47;3.60;;;;;;;8.38;100.00;95760.25;5007898;28;20025;-75
2022/10/01 07:55:23;;;;;;;6.03;3.90;;;;;;;8.46;100.00;95766.38;5009583;28;20061;-77
2022/10/01 07:57:53;;;;;;;5.77;3.63;;;;;;;8.42;100.00;95764.22;5016943;28;20718;-75
2022/10/01 08:00:19;;;;;;;5.97;3.50;;;;;;;8.43;100.00;95760.63;5000213;28;20514;-76
2022/10/01 08:02:47;;;;;;;6.43;3.93;;;;;;;8.46;100.00;95760.31;5002264;28;20030;-75
2022/10/01 08:05:16;;;;;;;9.93;4.03;;;;;;;8.42;100.00;95756.38;5025920;28;20109;-75
2022/10/01 08:07:41;;;;;;;12.70;5.20;;;;;;;8.46;100.00;95757.69;5027789;28;20091;-75
2022/10/01 08:10:07;;;;;;;11.27;5.70;;;;;;;8.52;100.00;95759.69;5030454;28;20033;-75
2022/10/01 08:12:33;;;;;;;8.20;4.80;;;;;;;8.46;100.00;95758.50;5016828;28;20072;-75
2022/10/01 08:15:01;;;;;;;5.67;3.03;;;;;;;8.45;100.00;95763.88;5000518;28;20025;-75
2022/10/01 08:17:26;;;;;;;5.70;1.97;;;;;;;8.45;100.00;95762.13;4996363;28;20487;-75
2022/10/01 08:19:52;;;;;;;6.07;2.20;;;;;;;8.48;100.00;95755.72;4975780;28;20049;-75
2022/10/01 08:22:18;;;;;;;4.47;2.30;;;;;;;8.46;100.00;95747.22;4990809;28;20028;-75
2022/10/01 08:24:43;;;;;;;4.30;1.80;;;;;;;8.44;100.00;95752.59;4993961;28;20108;-75
2022/10/01 08:27:09;;;;;;;6.03;2.13;;;;;;;8.42;100.00;95770.28;5003490;28;20056;-75
2022/10/01 08:29:35;;;;;;;3.97;1.90;;;;;;;8.41;100.00;95775.66;4993253;28;20038;-74
2022/10/01 08:32:00;;;;;;;4.77;2.03;;;;;;;8.44;100.00;95772.75;4993020;28;20406;-75
2022/10/01 08:34:26;;;;;;;2.80;1.60;;;;;;;8.38;100.00;95784.66;4991992;28;20134;-75
2022/10/01 08:36:52;;;;;;;4.53;1.60;;;;;;;8.33;100.00;95775.59;4972415;28;20104;-75
2022/10/01 08:39:17;;;;;;;4.67;2.43;;;;;;;8.33;100.00;95776.44;4987363;28;20095;-74
2022/10/01 08:41:57;;;;;;;6.67;3.07;;;;;;;8.34;100.00;95772.00;4979633;28;20072;-74
2022/10/01 08:44:31;;;;;;;7.03;3.03;;;;;;;8.28;100.00;95773.44;5013073;28;20073;-74
2022/10/01 08:47:05;;;;;;;4.57;2.20;;;;;;;8.42;100.00;95772.91;5031349;28;20120;-75
2022/10/01 08:49:46;;;;;;;5.13;2.30;;;;;;;8.35;100.00;95768.41;5004730;28;20065;-75
2022/10/01 08:52:35;;;;;;;5.33;2.70;;;;;;;8.37;100.00;95771.69;5033264;28;20053;-75
2022/10/01 08:55:08;;;;;;;5.50;2.20;;;;;;;8.32;100.00;95773.97;4980942;28;20057;-75
2022/10/01 08:57:42;;;;;;;3.45;1.73;;;;;;;8.36;100.00;95780.53;4982148;28;20029;-75
2022/10/01 09:00:13;;;;;;;4.75;2.40;;;;;;;8.38;100.00;95783.84;4983523;28;20030;-75
2022/10/01 09:02:42;;;;;;;4.80;2.20;;;;;;;8.34;100.00;95779.88;4985271;28;22136;-75
2022/10/01 09:05:46;;;;;;;5.60;2.77;;;;;;;8.38;100.00;95770.75;4984573;28;20113;-75
2022/10/01 09:08:42;;;;;;;5.72;2.35;;;;;;;8.44;100.00;95778.78;5014707;28;20064;-75
2022/10/01 09:11:46;;;;;;;5.20;2.90;;;;;;;8.50;100.00;95783.41;4993857;28;20045;-75
2022/10/01 09:14:33;;;;;;;4.53;2.33;;;;;;;8.57;100.00;95773.13;4988922;28;20060;-75
2022/10/01 09:17:15;;;;;;;4.67;2.40;;;;;;;8.60;100.00;95772.81;5021914;28;20061;-75
2022/10/01 09:19:53;;;;;;;6.47;2.80;;;;;;;8.69;100.00;95773.66;5018274;28;20029;-75
2022/10/01 09:22:26;;;;;;;5.57;2.90;;;;;;;8.67;100.00;95779.06;5021505;28;20052;-75
2022/10/01 09:24:58;;;;;;;4.38;2.33;;;;;;;8.66;100.00;95779.22;5003559;28;20059;-76
2022/10/01 09:27:26;;;;;;;12.03;3.07;;;;;;;8.74;100.00;95774.00;5026708;28;20471;-76
2022/10/01 09:29:59;;;;;;;5.40;2.77;;;;;;;8.85;100.00;95783.38;5020813;28;20045;-76
2022/10/01 09:32:29;;;;;;;6.15;2.70;;;;;;;8.82;100.00;95775.81;5006557;28;20038;-75
2022/10/01 09:34:59;;;;;;;4.73;2.40;;;;;;;8.82;100.00;95775.81;5017411;28;20061;-76
2022/10/01 09:37:51;;;;;;;5.70;3.10;;;;;;;8.91;100.00;95770.44;5005815;28;20033;-76
2022/10/01 09:40:25;;;;;;;9.57;2.80;;;;;;;8.81;100.00;95771.56;5028441;28;20216;-76
2022/10/01 09:42:51;;;;;;;5.30;2.80;;;;;;;8.70;100.00;95778.75;5008024;28;20040;-75
2022/10/01 09:45:18;;;;;;;6.03;2.40;;;;;;;8.84;100.00;95779.09;5028356;28;20030;-77
2022/10/01 09:47:51;;;;;;;7.23;3.97;;;;;;;8.83;100.00;95777.47;5020488;28;20048;-75
2022/10/01 09:50:29;;;;;;;3.97;2.20;;;;;;;8.81;100.00;95787.28;5008516;28;20163;-76
2022/10/01 09:52:57;;;;;;;9.17;3.90;;;;;;;8.85;100.00;95786.84;5020459;28;20034;-76
2022/10/01 09:55:36;;;;;;;7.13;3.37;;;;;;;8.99;100.00;95782.78;5023840;28;20030;-76
2022/10/01 09:58:17;;;;;;;4.27;1.87;;;;;;;8.80;100.00;95789.09;4998231;28;20128;-76
2022/10/01 10:00:44;;;;;;;3.83;1.97;;;;;;;8.81;100.00;95797.78;5017940;28;20045;-76
2022/10/01 10:03:21;;;;;;;3.53;1.70;;;;;;;8.82;100.00;95791.53;5006888;28;20042;-76
2022/10/01 10:05:48;;;;;;;4.07;2.07;;;;;;;8.86;100.00;95788.47;5019362;28;20137;-76
2022/10/01 10:08:28;;;;;;;5.30;2.73;;;;;;;8.94;100.00;95785.03;4997403;28;20037;-76
2022/10/01 10:10:59;;;;;;;5.53;2.60;;;;;;;8.96;100.00;95794.41;5011737;28;20026;-77
2022/10/01 10:13:33;;;;;;;4.77;2.37;;;;;;;8.94;100.00;95798.97;5027942;28;20076;-76
2022/10/01 10:16:06;;;;;;;3.70;1.93;;;;;;;8.97;100.00;95798.66;5024017;28;20054;-76
2022/10/01 10:18:34;;;;;;;3.88;1.80;;;;;;;8.92;100.00;95806.19;5009619;28;20041;-76
2022/10/01 10:21:20;;;;;;;4.93;2.07;;;;;;;9.05;100.00;95803.09;5022967;28;20037;-76
2022/10/01 10:23:49;;;;;;;3.93;2.10;;;;;;;9.02;100.00;95813.94;5019002;28;20394;-76
2022/10/01 10:26:30;;;;;;;4.13;2.20;;;;;;;9.02;100.00;95813.06;5014937;28;20033;-76
2022/10/01 10:28:57;;;;;;;4.57;2.30;;;;;;;8.95;100.00;95833.88;5004916;28;20034;-76
2022/10/01 10:31:42;;;;;;;3.73;2.40;;;;;;;8.96;100.00;95843.41;5028620;28;20076;-76
2022/10/01 10:34:15;;;;;;;5.03;2.57;;;;;;;8.93;100.00;95841.91;5011461;28;20069;-75
2022/10/01 10:36:42;;;;;;;;;;;;;;;8.82;100.00;95843.97;5019795;28;20033;-76
2022/10/01 10:39:32;;;;;;;3.83;2.30;;;;;;;8.85;100.00;95846.28;5021942;28;19917;-74
2022/10/01 10:41:59;;;;;;;3.23;2.00;;;;;;;8.83;100.00;95840.41;5015445;28;20037;-75
2022/10/01 10:44:33;;;;;;;5.07;2.23;;;;;;;8.87;100.00;95820.75;5011102;28;20026;-75
2022/10/01 10:47:04;;;;;;;5.43;2.70;;;;;;;8.87;100.00;95810.25;5007749;28;20038;-75
2022/10/01 10:49:33;;;;;;;4.23;2.40;;;;;;;8.70;100.00;95804.94;5029950;28;20049;-75
2022/10/01 10:52:00;;;;;;;2.87;1.60;;;;;;;8.73;100.00;95798.56;5042809;28;20037;-75
2022/10/01 10:54:36;;;;;;;4.17;2.10;;;;;;;8.90;100.00;95799.44;5019961;28;20621;-76
2022/10/01 10:57:19;;;;;;;4.87;2.30;;;;;;;8.82;100.00;95791.53;5011960;28;20069;-77
2022/10/01 10:59:54;;;;;;;3.30;2.00;;;;;;;8.91;100.00;95787.97;5007149;28;20053;-76
2022/10/01 11:02:22;;;;;;;3.37;1.80;;;;;;;8.90;100.00;95779.28;5012781;28;20049;-74
2022/10/01 11:04:48;;;;;;;4.67;1.80;;;;;;;8.93;100.00;95772.91;5052009;28;20109;-75
2022/10/01 11:07:20;;;;;;;3.30;1.60;;;;;;;8.91;100.00;95765.19;5030165;28;20645;-74
2022/10/01 11:10:04;;;;;;;4.13;1.70;;;;;;;8.92;100.00;95751.13;5028596;28;20550;-75
2022/10/01 11:13:06;;;;;;;2.80;1.60;;;;;;;9.01;100.00;95754.56;5020116;28;20034;-74
2022/10/01 11:15:41;;;;;;;4.03;1.80;;;;;;;9.06;100.00;95754.91;5010462;28;20045;-74
2022/10/01 11:18:35;;;;;;;5.00;2.00;;;;;;;9.12;100.00;95756.03;5016010;28;20049;-75
2022/10/01 11:21:10;;;;;;;5.07;2.33;;;;;;;9.15;100.00;95760.97;5038621;28;20042;-74
2022/10/01 11:24:18;;;;;;;7.80;3.10;;;;;;;9.21;100.00;95752.47;5005752;28;20041;-74
2022/10/01 11:27:01;;;;;;;4.33;2.20;;;;;;;9.25;100.00;95747.72;5012172;28;20040;-74
2022/10/01 11:29:55;;;;;;;5.75;2.95;;;;;;;9.53;100.00;95738.53;5016599;28;20475;-74
2022/10/01 11:32:50;;;;;;;5.90;2.70;;;;;;;9.65;100.00;95739.00;5022857;28;20042;-73
2022/10/01 11:35:44;;;;;;;5.28;2.72;;;;;;;9.88;100.00;95745.22;5020460;28;20037;-75
2022/10/01 11:38:35;;;;;;;4.17;2.00;;;;;;;10.05;100.00;95748.63;5022071;28;20056;-74
2022/10/01 11:41:37;;;;;;;6.37;2.67;;;;;;;10.27;100.00;95741.88;5028895;28;20045;-75
2022/10/01 11:44:36;;;;;;;4.47;1.57;;;;;;;10.40;100.00;95743.16;5031484;28;20048;-75
2022/10/01 11:47:07;;;;;;;4.73;1.83;;;;;;;10.64;100.00;95742.25;5019123;28;20034;-76
2022/10/01 11:49:54;;;;;;;3.53;1.50;;;;;;;10.62;100.00;95751.09;5026516;28;20045;-75
2022/10/01 11:52:38;;;;;;;3.90;1.40;;;;;;;10.44;100.00;95761.03;5009082;28;20025;-76